createdAt,value
2022-08-31T00:00:00.000Z,80.29
2022-08-31T00:15:00.000Z,81.01
2022-08-31T00:30:00.000Z,81
2022-08-31T00:45:00.000Z,81.67
2022-08-31T01:00:00.000Z,82.1
2022-08-31T01:15:00.000Z,81.91
2022-08-31T01:30:00.000Z,81.87
2022-08-31T01:45:00.000Z,81.41
2022-08-31T02:00:00.000Z,81.18
2022-08-31T02:15:00.000Z,81.77
2022-08-31T02:30:00.000Z,81.44
2022-08-31T02:45:00.000Z,81.02
2022-08-31T03:00:00.000Z,81.04
2022-08-31T03:30:00.000Z,81.24
2022-08-31T03:30:00.000Z,81.15
2022-08-31T03:45:00.000Z,80.75
2022-08-31T04:00:00.000Z,80.9
2022-08-31T04:30:00.000Z,80.52
2022-08-31T04:30:00.000Z,80.59
2022-08-31T04:45:00.000Z,80.01
2022-08-31T05:00:00.000Z,79.99
2022-08-31T05:15:00.000Z,80.88
2022-08-31T05:30:00.000Z,81.61
2022-08-31T05:45:00.000Z,82.51
2022-08-31T06:00:00.000Z,84.14
2022-08-31T06:15:00.000Z,85.75
2022-08-31T06:30:00.000Z,86.95
2022-08-31T06:45:00.000Z,87.11
2022-08-31T07:00:00.000Z,87.11
2022-08-31T07:15:00.000Z,86.75
2022-08-31T07:30:00.000Z,85.96
2022-08-31T07:45:00.000Z,85.52
2022-08-31T08:00:00.000Z,84.86
2022-08-31T08:15:00.000Z,84.73
2022-08-31T08:30:00.000Z,84.69
2022-08-31T08:45:00.000Z,84.71
2022-08-31T09:00:00.000Z,84.62
2022-08-31T09:15:00.000Z,84.08
2022-08-31T09:30:00.000Z,83.8
2022-08-31T09:45:00.000Z,82.68
2022-08-31T10:00:00.000Z,82.43
2022-08-31T10:15:00.000Z,82.4
2022-08-31T10:30:00.000Z,81.84
2022-08-31T10:45:00.000Z,82.03
2022-08-31T11:00:00.000Z,82.38
2022-08-31T11:15:00.000Z,82.31
2022-08-31T11:30:00.000Z,81.45
2022-08-31T11:45:00.000Z,81.08
2022-08-31T12:00:00.000Z,80.26
2022-08-31T12:15:00.000Z,79.25
2022-08-31T12:30:00.000Z,78.97
2022-08-31T12:45:00.000Z,78.63
2022-08-31T13:00:00.000Z,78.23
2022-08-31T13:15:00.000Z,77.38
2022-08-31T13:30:00.000Z,76.65
2022-08-31T13:45:00.000Z,77.79
2022-08-31T14:00:00.000Z,78.68
2022-08-31T14:15:00.000Z,79.33
2022-08-31T14:30:00.000Z,78.99
2022-08-31T14:45:00.000Z,78.38
2022-08-31T15:00:00.000Z,78.05
2022-08-31T15:15:00.000Z,77.56
2022-08-31T15:30:00.000Z,78.31
2022-08-31T15:45:00.000Z,78.04
2022-08-31T16:00:00.000Z,77.75
2022-08-31T16:15:00.000Z,80.53
2022-08-31T16:30:00.000Z,80.91
2022-08-31T16:45:00.000Z,79.69
2022-08-31T17:00:00.000Z,79.51
2022-08-31T17:15:00.000Z,78.96
2022-08-31T17:30:00.000Z,78.95
2022-08-31T17:45:00.000Z,79.9
2022-08-31T18:00:00.000Z,80.29
2022-08-31T18:15:00.000Z,80.64
2022-08-31T18:30:00.000Z,79.97
2022-08-31T18:45:00.000Z,80.01
2022-08-31T19:00:00.000Z,80.43
2022-08-31T19:15:00.000Z,80.61
2022-08-31T19:30:00.000Z,81.2
2022-08-31T19:45:00.000Z,81.08
2022-08-31T20:00:00.000Z,80.97
2022-08-31T20:15:00.000Z,80.53
2022-08-31T20:30:00.000Z,81.05
2022-08-31T20:45:00.000Z,81.16
2022-08-31T21:00:00.000Z,81.52
2022-08-31T21:15:00.000Z,81.63
2022-08-31T21:30:00.000Z,81.35
2022-08-31T21:45:00.000Z,79.68
2022-08-31T22:00:00.000Z,79.59
2022-08-31T22:15:00.000Z,78.6
2022-08-31T22:30:00.000Z,77.59
2022-08-31T22:45:00.000Z,78.55
2022-08-31T23:00:00.000Z,78.92
2022-08-31T23:15:00.000Z,79.79
2022-08-31T23:30:00.000Z,80.5
2022-08-31T23:45:00.000Z,79.92
